EHBK/MST METAR and TAF weather

Enter ICAO airport designator
Station Type Date Time Source
EHBK METAR 2018/07/21 12:55 UTC NOAA

EHBK 211255Z AUTO 33002KT 9999 NSC 28/11 Q1011 NOSIG


Station Type Date Time Source
EHBK Decoded METAR 2018/07/21 12:55 UTC NOAA

Maastricht Airport Zuid Limburg, Netherlands (EHBK) 50-55N 005-47E 116M
Jul 21, 2018 - 08:55 AM EDT / 2018.07.21 1255 UTC
Wind: from the NNW (330 degrees) at 2 MPH (2 KT):0
Visibility: greater than 7 mile(s):0
Temperature: 82 F (28 C)
Dew Point: 51 F (11 C)
Relative Humidity: 34%
Pressure (altimeter): 29.85 in. Hg (1011 hPa)
ob: EHBK 211255Z AUTO 33002KT 9999 NSC 28/11 Q1011 NOSIG
cycle: 13

Station Type Date Time Source
EHBK TAF 2018/07/21 12:27 UTC NOAA

TAF EHBK 211105Z 2112/2218 29005KT CAVOK


Example: see airport list